Pagina principale
METAR-TAF:

METAR-TAF

Aeroporti :

Aeroporto Internazionale José Martí

L'Avana, Cuba

latitudine: 22-59N, longitudine: 082-24W, altezza: 59 m

Osservazione

Il bollettino è stato emesso 33 minuti fa, alle 07:55 UTC
Vento 3 kt da est/nord-est
Temperature 24°C
Umidità 100%
Pressione 1018 hPa
Visibilità: 9000 m

METAR: MUHA 180755Z 06003KT 9000 NSC 24/24 Q1018

Ora: 04:28 (08:28 UTC)

Previsione

Il bollettino è stato emesso 3 ore e 28 minuti fa, alle 05:00 UTC
Previsione valida dal 18 alle 06 UTC al 19 alle 06 UTC
Vento 6 kt da est
Visibilità: 9000 m
Poco nuvoloso ad un'altezza di 2000 ft
Temporaneamente
dal 18 alle 18 UTC al 18 alle 23 UTC
Vento 10 kt da direzioni variabili
Visibilità: 3000 m
Poco nuvoloso ad un'altezza di 1800 ft, Cumulonembo.
Nuvoloso ad un'altezza di 2500 ft
temporale, pioggia

TAF: MUHA 180500Z 1806/1906 09006KT 9000 FEW020 TEMPO 1818/1823 VRB10KT 3000 TSRA FEW018CB BKN025

Osservazioni e previsioni meteorologiche di più di 4000 aeroporti (messaggi METAR e TAF).

Le stazioni disponibili sono rappresentate dai dischi gialli e rossi sulla carta.

Puntare il mouse per vedere il nome della stazione.

Clicca sopra per visualizzare le osservazioni e previsioni meteorologiche.

Per cambiare la mappa : fare clic sui pulsanti verdi con una croce nera per ingrandire, il pulsante verde con un trattino per diminuire, o sulla freccia verde per le mappe adiacenti.


METAR-TAF: